OwLS Head — WDJ5742 — position and weather

sailwx.info

Track history (hours):
 
Tides and Currents Weather Stations Pressure Air Temp Water Temp Dewpoint Dewpoint Depression Visibility Wind Speed Wind Dir Waves Ship Positions

OwLS Head

Owner: HNY Ferry Fleet LLC, New York, NY. More information available from US FCC via Universal Licensing System and Coast Guard Vessel Documentation Center.

Last reported at 2018-Jul-16 02:17 UTC. Time now 2018-Jul-17 15:22 UTC.
Position N 40°42' W 073°59'.

; draft 2 m.

Type: Passenger vessel. MMSI: 367790830.

Date/timePositionNaut miles runAvg speedWind from/ knotsBaromVisibWave heightAir tempDewpointWater temp
2018-Jul-16 02:17N 40°42' W 073°59'2 8.3
2018-Jul-16 02:00N 40°45' W 073°58'2 4.5
2018-Jul-16 01:30N 40°42' W 073°59'1 2.1
2018-Jul-16 01:01N 40°42' W 074°00'0 0.6
2018-Jul-16 00:31N 40°42' W 073°60'2 4.5
2018-Jul-16 00:01N 40°44' W 073°58'1 1.4
2018-Jul-15 23:30N 40°43' W 073°58'2 4.2
2018-Jul-15 23:00N 40°42' W 074°00'0 0.9
2018-Jul-15 22:31N 40°42' W 073°60'2 4.5
2018-Jul-15 22:00N 40°44' W 073°58'1 1.3
2018-Jul-15 21:30N 40°43' W 073°58'2 2.1
2018-Jul-15 20:35N 40°42' W 074°00'0 2.5
2018-Jul-15 20:26N 40°42' W 073°60'3 3.5
2018-Jul-15 19:41N 40°45' W 073°58'1 5.1
2018-Jul-15 19:26N 40°43' W 073°58'2 3.0
2018-Jul-15 18:44N 40°42' W 074°00'1 2.9
2018-Jul-15 18:28N 40°42' W 073°59'2 4.5
2018-Jul-15 17:56N 40°45' W 073°58'2 3.7
2018-Jul-15 17:21N 40°43' W 073°58'2 2.1
2018-Jul-15 16:35N 40°42' W 074°00'1 3.1
2018-Jul-15 16:25N 40°42' W 073°60'3 5.4
2018-Jul-15 15:55N 40°45' W 073°58'1 2.9
2018-Jul-15 15:29N 40°43' W 073°58'2 1.7
2018-Jul-15 14:16N 40°42' W 074°00'2 6.1
2018-Jul-15 14:00N 40°43' W 073°58'1 2.0
2018-Jul-15 13:17N 40°44' W 073°58'1 4.9
2018-Jul-15 13:00N 40°43' W 073°58'2 3.2
2018-Jul-15 12:29N 40°42' W 074°00'1 0.1
2018-Jul-15 02:26N 40°42' W 073°58'3 5.9
2018-Jul-15 02:00N 40°45' W 073°58'3 5.0
2018-Jul-15 01:30N 40°42' W 073°59'1 1.9
2018-Jul-15 01:00N 40°42' W 074°00'0 0.9
2018-Jul-15 00:31N 40°42' W 073°60'2 4.9
2018-Jul-15 00:00N 40°44' W 073°58'1 1.5
2018-Jul-14 23:30N 40°44' W 073°58'2 4.6
2018-Jul-14 23:00N 40°42' W 074°00'0 0.9
2018-Jul-14 22:30N 40°42' W 073°60'2 4.6
2018-Jul-14 22:01N 40°44' W 073°58'0 0.7
2018-Jul-14 21:30N 40°44' W 073°58'2 4.8
2018-Jul-14 21:00N 40°42' W 074°00'0 0.9
2018-Jul-14 20:31N 40°42' W 073°60'3 5.1
2018-Jul-14 20:01N 40°44' W 073°58'1 2.1
2018-Jul-14 19:31N 40°43' W 073°58'2 4.2
2018-Jul-14 19:00N 40°42' W 074°00'1 2.3
2018-Jul-14 18:31N 40°42' W 073°59'2 4.4
2018-Jul-14 18:00N 40°45' W 073°58'1 2.6
2018-Jul-14 17:30N 40°43' W 073°58'2 4.3
2018-Jul-14 17:01N 40°42' W 074°00'0 0.9
2018-Jul-14 16:30N 40°42' W 073°60'2 4.9
2018-Jul-14 16:01N 40°44' W 073°58'1 1.7
2018-Jul-14 15:30N 40°43' W 073°58'2 4.4
2018-Jul-14 15:00N 40°42' W 074°00'0 0.0
2018-Jul-14 14:30N 40°42' W 074°00'3 2.9
2018-Jul-14 13:30N 40°45' W 073°58'2 4.0
2018-Jul-14 13:01N 40°43' W 073°58'2 3.3
2018-Jul-14 12:30N 40°42' W 074°00'0 0.0
2018-Jul-14 12:00N 40°42' W 074°00'2 4.8
2018-Jul-14 11:30N 40°44' W 073°58'1 2.2
2018-Jul-14 11:01N 40°43' W 073°58'1 1.4
2018-Jul-14 10:30N 40°42' W 073°58'0 0.0
2018-Jul-14 02:34N 40°42' W 073°58'0 1.1
2018-Jul-14 02:30N 40°42' W 073°58'1 2.7
2018-Jul-14 02:00N 40°43' W 073°58'2 4.4
2018-Jul-14 01:30N 40°42' W 074°00'0 0.7
2018-Jul-14 01:00N 40°42' W 073°60'2 4.8
2018-Jul-14 00:31N 40°44' W 073°58'1 1.3
2018-Jul-14 00:00N 40°43' W 073°58'2 4.3
2018-Jul-13 23:30N 40°42' W 074°00'2 4.3
2018-Jul-13 23:01N 40°43' W 073°58'1 1.2
2018-Jul-13 22:30N 40°44' W 073°58'2 4.4
2018-Jul-13 22:01N 40°42' W 073°60'1 1.9
2018-Jul-13 21:31N 40°42' W 073°59'2 4.1
2018-Jul-13 20:58N 40°45' W 073°58'2 4.7
2018-Jul-13 20:31N 40°43' W 073°58'1 2.9
2018-Jul-13 20:00N 40°42' W 074°00'2 4.8
2018-Jul-13 19:30N 40°44' W 073°58'1 1.1
2018-Jul-13 19:00N 40°43' W 073°58'2 4.3
2018-Jul-13 18:30N 40°42' W 074°00'1 1.9
2018-Jul-13 18:00N 40°42' W 073°59'1 2.6
2018-Jul-13 17:31N 40°43' W 073°58'1 2.5
2018-Jul-13 17:01N 40°45' W 073°58'3 5.4
2018-Jul-13 16:30N 40°42' W 073°60'1 1.0
2018-Jul-13 16:00N 40°42' W 074°00'2 4.3
2018-Jul-13 15:31N 40°43' W 073°58'1 2.5
2018-Jul-13 15:00N 40°45' W 073°58'3 2.8
2018-Jul-13 14:01N 40°42' W 073°60'2 4.5
2018-Jul-13 13:30N 40°44' W 073°58'1 1.3
2018-Jul-13 13:01N 40°43' W 073°58'2 4.3
2018-Jul-13 12:30N 40°42' W 074°00'2 4.2
2018-Jul-13 12:00N 40°43' W 073°58'1 2.5
2018-Jul-13 11:31N 40°44' W 073°58'3 5.1
2018-Jul-13 11:00N 40°42' W 073°60'1 1.9
2018-Jul-13 10:30N 40°42' W 073°58'0 0.1
2018-Jul-13 10:00N 40°42' W 073°58'0 0.0
2018-Jul-13 02:09N 40°42' W 073°58'1 8.3
2018-Jul-13 02:01N 40°42' W 073°60'2 4.5
2018-Jul-13 01:30N 40°40' W 074°01'2 3.0
2018-Jul-13 01:00N 40°39' W 074°02'0 0.4
2018-Jul-13 00:31N 40°39' W 074°02'4 8.2
2018-Jul-13 00:00N 40°42' W 073°58'0 0.8
2018-Jul-12 23:31N 40°43' W 073°59'4 6.2
2018-Jul-12 22:51N 40°46' W 073°56'2 5.6
2018-Jul-12 22:26N 40°45' W 073°58'2 4.1
2018-Jul-12 22:00N 40°43' W 073°58'4 7.4
2018-Jul-12 21:29N 40°46' W 073°56'2 4.9
2018-Jul-12 21:00N 40°45' W 073°58'4 8.2
2018-Jul-12 20:31N 40°41' W 074°01'2 4.4
2018-Jul-12 20:01N 40°39' W 074°02'1 1.0
2018-Jul-12 19:30N 40°38' W 074°02'5 9.5
2018-Jul-12 19:01N 40°42' W 073°58'0 0.3
2018-Jul-12 18:30N 40°42' W 073°58'0 0.0
2018-Jul-12 18:01N 40°42' W 073°58'0 0.4
2018-Jul-12 17:31N 40°42' W 073°58'0 0.2
2018-Jul-12 17:01N 40°42' W 073°58'0 0.0
2018-Jul-12 16:30N 40°42' W 073°58'4 6.5
2018-Jul-12 15:56N 40°46' W 073°57'4 9.1
2018-Jul-12 15:31N 40°42' W 073°58'0 0.0
2018-Jul-12 15:00N 40°42' W 073°58'0 0.0
2018-Jul-12 14:30N 40°42' W 073°58'0 0.0
2018-Jul-12 13:59N 40°42' W 073°58'0 0.0
2018-Jul-12 13:30N 40°42' W 073°58'0 0.0
2018-Jul-12 00:28N 40°42' W 073°58'0 0.5
2018-Jul-12 00:00N 40°42' W 073°58'1 1.1
2018-Jul-11 23:30N 40°43' W 073°59'3 4.3
2018-Jul-11 22:45N 40°45' W 073°57'1 4.3
2018-Jul-11 22:28N 40°45' W 073°58'1 3.1
2018-Jul-11 22:00N 40°43' W 073°58'3 4.7
2018-Jul-11 21:17N 40°46' W 073°56'2 6.6
2018-Jul-11 20:56N 40°45' W 073°58'3 6.6
2018-Jul-11 20:30N 40°42' W 074°00'0 0.0
2018-Jul-11 20:00N 40°42' W 074°00'0 0.4
2018-Jul-11 19:30N 40°42' W 074°00'3 5.6
2018-Jul-11 19:00N 40°45' W 073°58'3 5.9
2018-Jul-11 18:30N 40°42' W 074°00'1 2.9
2018-Jul-11 18:00N 40°42' W 073°58'0 0.0
2018-Jul-11 17:30N 40°42' W 073°58'1 1.1
2018-Jul-11 17:00N 40°43' W 073°58'1 1.3
2018-Jul-11 16:29N 40°42' W 073°58'0 0.0
2018-Jul-11 16:00N 40°42' W 073°58'0 0.2
2018-Jul-11 15:30N 40°42' W 073°58'1 3.0
2018-Jul-11 15:00N 40°42' W 074°00'3 6.9
2018-Jul-11 14:30N 40°45' W 073°57'1 1.0
2018-Jul-11 13:58N 40°45' W 073°57'4 8.7
2018-Jul-11 13:30N 40°42' W 074°00'4 7.2
2018-Jul-11 13:00N 40°45' W 073°57'0 0.3
2018-Jul-11 12:26N 40°45' W 073°57'4 8.8
2018-Jul-11 12:01N 40°42' W 074°00'4 7.8
2018-Jul-11 11:29N 40°46' W 073°57'3 7.1
2018-Jul-11 11:00N 40°42' W 073°59'0 0.7
2018-Jul-11 10:30N 40°42' W 073°58'0 0.0
2018-Jul-11 02:54N 40°42' W 073°58'511.7
2018-Jul-11 02:31N 40°39' W 074°02'3 6.6
2018-Jul-11 02:00N 40°42' W 074°00'0 0.1
2018-Jul-11 01:30N 40°42' W 074°00'3 6.0
2018-Jul-11 01:00N 40°39' W 074°02'3 5.3
2018-Jul-11 00:31N 40°41' W 074°01'1 1.9
2018-Jul-11 00:00N 40°42' W 073°60'4 7.7
2018-Jul-10 23:30N 40°39' W 074°02'3 5.8
2018-Jul-10 23:01N 40°41' W 074°01'0 0.8
2018-Jul-10 22:31N 40°42' W 074°00'4 7.1
2018-Jul-10 22:01N 40°38' W 074°02'4 7.1
2018-Jul-10 21:31N 40°42' W 074°00'1 1.2
2018-Jul-10 21:01N 40°42' W 073°60'4 7.8
2018-Jul-10 20:30N 40°39' W 074°02'3 6.5
2018-Jul-10 20:01N 40°41' W 074°00'1 1.3
2018-Jul-10 19:31N 40°42' W 074°00'4 7.9
2018-Jul-10 19:00N 40°38' W 074°02'3 6.9
2018-Jul-10 18:30N 40°42' W 074°00'0 0.2
2018-Jul-10 18:01N 40°42' W 074°00'4 7.0
2018-Jul-10 17:30N 40°38' W 074°02'4 8.3
2018-Jul-10 17:01N 40°42' W 073°60'1 1.3
2018-Jul-10 16:30N 40°42' W 074°00'4 7.1
2018-Jul-10 16:00N 40°38' W 074°02'3 6.8
2018-Jul-10 15:30N 40°41' W 074°00'1 1.4
2018-Jul-10 15:00N 40°42' W 074°00'1 1.3
2018-Jul-10 14:31N 40°42' W 074°00'4 7.1
2018-Jul-10 14:01N 40°38' W 074°02'4 7.1
2018-Jul-10 13:31N 40°42' W 074°00'0 0.0
2018-Jul-10 13:00N 40°42' W 074°00'3 6.9
2018-Jul-10 12:31N 40°39' W 074°02'3 6.3
2018-Jul-10 12:00N 40°41' W 074°01'0 0.8
2018-Jul-10 11:30N 40°42' W 074°00'3 6.9
2018-Jul-10 11:00N 40°39' W 074°02'4 8.6
2018-Jul-10 10:30N 40°42' W 073°59'1 1.9
2018-Jul-10 10:00N 40°42' W 073°58'0 0.0
2018-Jul-10 01:47N 40°42' W 073°58'0 1.8
2018-Jul-10 01:30N 40°42' W 073°59'2 4.4
2018-Jul-10 01:01N 40°41' W 074°01'0 0.0
2018-Jul-10 00:30N 40°41' W 074°01'2 3.7
2018-Jul-10 00:00N 40°42' W 073°59'0 0.7
2018-Jul-09 23:30N 40°43' W 073°59'4 7.2
2018-Jul-09 23:00N 40°46' W 073°57'2 3.2
2018-Jul-09 22:30N 40°45' W 073°58'2 4.2
2018-Jul-09 22:00N 40°43' W 073°59'4 6.6
2018-Jul-09 21:22N 40°46' W 073°56'2 6.2
2018-Jul-09 21:00N 40°45' W 073°58'2 4.8
2018-Jul-09 20:30N 40°42' W 073°59'1 1.5
2018-Jul-09 20:01N 40°42' W 073°58'2 4.4
2018-Jul-09 19:30N 40°41' W 074°01'2 4.4
2018-Jul-09 19:00N 40°42' W 073°59'0 0.9
2018-Jul-09 18:31N 40°42' W 073°58'3 3.4
2018-Jul-09 17:46N 40°45' W 073°58'1 1.1
2018-Jul-09 16:25N 40°46' W 073°57'4 9.1
2018-Jul-09 16:00N 40°42' W 073°59'0 0.1
2018-Jul-09 15:30N 40°42' W 073°59'0 1.0
2018-Jul-09 15:00N 40°42' W 073°60'3 6.4
2018-Jul-09 14:31N 40°45' W 073°57'1 1.1
2018-Jul-09 14:00N 40°45' W 073°57'4 8.1
2018-Jul-09 13:30N 40°42' W 074°00'4 8.0
2018-Jul-09 13:00N 40°45' W 073°57'0 0.0
2018-Jul-09 12:30N 40°45' W 073°57'4 8.2
2018-Jul-09 12:00N 40°42' W 074°00'4 7.7
2018-Jul-09 11:27N 40°46' W 073°57'3 7.6
2018-Jul-09 11:00N 40°42' W 073°59'0 0.6
2018-Jul-09 10:30N 40°42' W 073°58'0 0.0
2018-Jul-09 01:24N 40°42' W 073°58'2 3.9
2018-Jul-09 01:00N 40°42' W 074°00'2 4.3
2018-Jul-09 00:31N 40°40' W 074°01'2 4.3
2018-Jul-09 00:00N 40°42' W 074°00'1 2.5
2018-Jul-08 23:30N 40°41' W 074°01'2 4.5
2018-Jul-08 23:00N 40°39' W 074°02'4 7.5
2018-Jul-08 22:31N 40°42' W 073°60'0 0.0
2018-Jul-08 22:01N 40°42' W 073°60'4 8.4
2018-Jul-08 21:30N 40°38' W 074°02'3 7.0
2018-Jul-08 21:00N 40°42' W 074°00'1 1.2
2018-Jul-08 20:30N 40°42' W 073°60'4 7.0
2018-Jul-08 20:00N 40°39' W 074°02'2 4.3
2018-Jul-08 19:30N 40°41' W 074°01'1 2.7
2018-Jul-08 18:58N 40°42' W 074°00'1 3.1
2018-Jul-08 18:30N 40°41' W 074°01'2 4.3
2018-Jul-08 18:00N 40°39' W 074°02'4 6.9
2018-Jul-08 17:29N 40°42' W 073°60'0 0.1
2018-Jul-08 17:00N 40°42' W 073°60'4 8.2
2018-Jul-08 16:30N 40°38' W 074°02'4 7.1
2018-Jul-08 16:00N 40°42' W 074°00'1 2.9
2018-Jul-08 15:29N 40°42' W 073°58'0 0.0
2018-Jul-08 04:18N 40°42' W 073°58'0 0.0
2018-Jul-08 04:01N 40°42' W 073°58'0 0.0
2018-Jul-08 03:30N 40°42' W 073°58'0 0.1
2018-Jul-07 23:02N 40°42' W 073°59'0 6.8
2018-Jul-07 23:01N 40°42' W 073°59'1 2.5
2018-Jul-07 22:31N 40°42' W 074°00'0 0.0
2018-Jul-07 22:00N 40°42' W 074°00'1 2.1
2018-Jul-07 21:30N 40°41' W 074°01'0 0.1
2018-Jul-07 21:00N 40°41' W 074°01'0 0.0
2018-Jul-07 20:30N 40°41' W 074°01'0 0.0
2018-Jul-07 20:01N 40°41' W 074°01'0 0.8
2018-Jul-07 19:31N 40°41' W 074°00'0 0.3
2018-Jul-07 19:01N 40°42' W 074°01'1 1.3
2018-Jul-07 18:30N 40°42' W 074°00'0 0.1
2018-Jul-07 18:00N 40°42' W 074°00'0 0.1
2018-Jul-07 17:30N 40°42' W 074°00'0 0.1
2018-Jul-07 16:59N 40°42' W 074°00'0 0.0
2018-Jul-07 16:30N 40°42' W 074°00'0 0.0
2018-Jul-07 16:00N 40°42' W 074°00'0 0.5
2018-Jul-07 15:30N 40°42' W 074°00'0 0.2
2018-Jul-07 15:00N 40°42' W 074°00'0 0.8
2018-Jul-07 14:30N 40°42' W 074°00'0 0.1
2018-Jul-07 14:01N 40°42' W 074°00'2 0.1
2018-Jul-07 02:50N 40°42' W 073°58'0 1.1
2018-Jul-07 02:31N 40°42' W 073°59'3 5.7
2018-Jul-07 01:59N 40°45' W 073°57'4 8.1
2018-Jul-07 01:30N 40°42' W 074°00'4 6.9
2018-Jul-07 00:55N 40°45' W 073°57'0 0.5
2018-Jul-07 00:30N 40°45' W 073°57'4 7.7
2018-Jul-07 00:00N 40°42' W 074°00'4 6.9
2018-Jul-06 23:25N 40°45' W 073°57'0 1.0
2018-Jul-06 23:00N 40°45' W 073°57'4 7.4
2018-Jul-06 22:30N 40°42' W 074°00'4 8.0
2018-Jul-06 22:00N 40°45' W 073°57'0 0.1
2018-Jul-06 21:30N 40°45' W 073°57'4 7.9
2018-Jul-06 21:00N 40°42' W 074°00'3 5.9
2018-Jul-06 20:30N 40°45' W 073°58'1 2.1
2018-Jul-06 19:54N 40°46' W 073°57'2 6.3
2018-Jul-06 19:30N 40°43' W 073°58'2 3.4
2018-Jul-06 19:00N 40°45' W 073°57'2 3.3
2018-Jul-06 18:29N 40°46' W 073°56'3 6.3
2018-Jul-06 18:00N 40°44' W 073°58'1 1.6
2018-Jul-06 17:26N 40°45' W 073°58'1 2.7
2018-Jul-06 16:54N 40°46' W 073°57'2 5.1
2018-Jul-06 16:30N 40°44' W 073°58'1 1.2
2018-Jul-06 15:57N 40°45' W 073°58'1 2.6
2018-Jul-06 15:28N 40°46' W 073°57'4 8.3
2018-Jul-06 15:01N 40°42' W 073°60'3 6.2
2018-Jul-06 14:30N 40°45' W 073°57'0 0.8
2018-Jul-06 13:55N 40°45' W 073°57'4 9.4
2018-Jul-06 13:30N 40°42' W 074°00'4 7.1
2018-Jul-06 13:00N 40°45' W 073°57'0 0.9
2018-Jul-06 12:29N 40°45' W 073°57'4 8.3
2018-Jul-06 12:00N 40°42' W 074°00'4 8.0
2018-Jul-06 11:30N 40°45' W 073°57'3 6.7
2018-Jul-06 11:00N 40°42' W 073°59'0 0.7
2018-Jul-06 10:30N 40°42' W 073°58'0 0.0
2018-Jul-06 10:00N 40°42' W 073°58'  
Track history (hours):
 
Tides and Currents Weather Stations Pressure Air Temp Water Temp Dewpoint Dewpoint Depression Visibility Wind Speed Wind Dir Waves Ship Positions

OwLS Head

Owner: HNY Ferry Fleet LLC, New York, NY. More information available from US FCC via Universal Licensing System and Coast Guard Vessel Documentation Center.

Last reported at 2018-Jul-16 02:17 UTC. Time now 2018-Jul-17 15:22 UTC.
Position N 40°42' W 073°59'.

; draft 2 m.

Type: Passenger vessel. MMSI: 367790830.

Date/timePositionNaut miles runAvg speedWind from/ knotsBaromVisibWave heightAir tempDewpointWater temp
2018-Jul-16 02:17N 40°42' W 073°59'2 8.3
2018-Jul-16 02:00N 40°45' W 073°58'2 4.5
2018-Jul-16 01:30N 40°42' W 073°59'1 2.1
2018-Jul-16 01:01N 40°42' W 074°00'0 0.6
2018-Jul-16 00:31N 40°42' W 073°60'2 4.5
2018-Jul-16 00:01N 40°44' W 073°58'1 1.4
2018-Jul-15 23:30N 40°43' W 073°58'2 4.2
2018-Jul-15 23:00N 40°42' W 074°00'0 0.9
2018-Jul-15 22:31N 40°42' W 073°60'2 4.5
2018-Jul-15 22:00N 40°44' W 073°58'1 1.3
2018-Jul-15 21:30N 40°43' W 073°58'2 2.1
2018-Jul-15 20:35N 40°42' W 074°00'0 2.5
2018-Jul-15 20:26N 40°42' W 073°60'3 3.5
2018-Jul-15 19:41N 40°45' W 073°58'1 5.1
2018-Jul-15 19:26N 40°43' W 073°58'2 3.0
2018-Jul-15 18:44N 40°42' W 074°00'1 2.9
2018-Jul-15 18:28N 40°42' W 073°59'2 4.5
2018-Jul-15 17:56N 40°45' W 073°58'2 3.7
2018-Jul-15 17:21N 40°43' W 073°58'2 2.1
2018-Jul-15 16:35N 40°42' W 074°00'1 3.1
2018-Jul-15 16:25N 40°42' W 073°60'3 5.4
2018-Jul-15 15:55N 40°45' W 073°58'1 2.9
2018-Jul-15 15:29N 40°43' W 073°58'2 1.7
2018-Jul-15 14:16N 40°42' W 074°00'2 6.1
2018-Jul-15 14:00N 40°43' W 073°58'1 2.0
2018-Jul-15 13:17N 40°44' W 073°58'1 4.9
2018-Jul-15 13:00N 40°43' W 073°58'2 3.2
2018-Jul-15 12:29N 40°42' W 074°00'1 0.1
2018-Jul-15 02:26N 40°42' W 073°58'3 5.9
2018-Jul-15 02:00N 40°45' W 073°58'3 5.0
2018-Jul-15 01:30N 40°42' W 073°59'1 1.9
2018-Jul-15 01:00N 40°42' W 074°00'0 0.9
2018-Jul-15 00:31N 40°42' W 073°60'2 4.9
2018-Jul-15 00:00N 40°44' W 073°58'1 1.5
2018-Jul-14 23:30N 40°44' W 073°58'2 4.6
2018-Jul-14 23:00N 40°42' W 074°00'0 0.9
2018-Jul-14 22:30N 40°42' W 073°60'2 4.6
2018-Jul-14 22:01N 40°44' W 073°58'0 0.7
2018-Jul-14 21:30N 40°44' W 073°58'2 4.8
2018-Jul-14 21:00N 40°42' W 074°00'0 0.9
2018-Jul-14 20:31N 40°42' W 073°60'3 5.1
2018-Jul-14 20:01N 40°44' W 073°58'1 2.1
2018-Jul-14 19:31N 40°43' W 073°58'2 4.2
2018-Jul-14 19:00N 40°42' W 074°00'1 2.3
2018-Jul-14 18:31N 40°42' W 073°59'2 4.4
2018-Jul-14 18:00N 40°45' W 073°58'1 2.6
2018-Jul-14 17:30N 40°43' W 073°58'2 4.3
2018-Jul-14 17:01N 40°42' W 074°00'0 0.9
2018-Jul-14 16:30N 40°42' W 073°60'2 4.9
2018-Jul-14 16:01N 40°44' W 073°58'1 1.7
2018-Jul-14 15:30N 40°43' W 073°58'2 4.4
2018-Jul-14 15:00N 40°42' W 074°00'0 0.0
2018-Jul-14 14:30N 40°42' W 074°00'3 2.9
2018-Jul-14 13:30N 40°45' W 073°58'2 4.0
2018-Jul-14 13:01N 40°43' W 073°58'2 3.3
2018-Jul-14 12:30N 40°42' W 074°00'0 0.0
2018-Jul-14 12:00N 40°42' W 074°00'2 4.8
2018-Jul-14 11:30N 40°44' W 073°58'1 2.2
2018-Jul-14 11:01N 40°43' W 073°58'1 1.4
2018-Jul-14 10:30N 40°42' W 073°58'0 0.0
2018-Jul-14 02:34N 40°42' W 073°58'0 1.1
2018-Jul-14 02:30N 40°42' W 073°58'1 2.7
2018-Jul-14 02:00N 40°43' W 073°58'2 4.4
2018-Jul-14 01:30N 40°42' W 074°00'0 0.7
2018-Jul-14 01:00N 40°42' W 073°60'2 4.8
2018-Jul-14 00:31N 40°44' W 073°58'1 1.3
2018-Jul-14 00:00N 40°43' W 073°58'2 4.3
2018-Jul-13 23:30N 40°42' W 074°00'2 4.3
2018-Jul-13 23:01N 40°43' W 073°58'1 1.2
2018-Jul-13 22:30N 40°44' W 073°58'2 4.4
2018-Jul-13 22:01N 40°42' W 073°60'1 1.9
2018-Jul-13 21:31N 40°42' W 073°59'2 4.1
2018-Jul-13 20:58N 40°45' W 073°58'2 4.7
2018-Jul-13 20:31N 40°43' W 073°58'1 2.9
2018-Jul-13 20:00N 40°42' W 074°00'2 4.8
2018-Jul-13 19:30N 40°44' W 073°58'1 1.1
2018-Jul-13 19:00N 40°43' W 073°58'2 4.3
2018-Jul-13 18:30N 40°42' W 074°00'1 1.9
2018-Jul-13 18:00N 40°42' W 073°59'1 2.6
2018-Jul-13 17:31N 40°43' W 073°58'1 2.5
2018-Jul-13 17:01N 40°45' W 073°58'3 5.4
2018-Jul-13 16:30N 40°42' W 073°60'1 1.0
2018-Jul-13 16:00N 40°42' W 074°00'2 4.3
2018-Jul-13 15:31N 40°43' W 073°58'1 2.5
2018-Jul-13 15:00N 40°45' W 073°58'3 2.8
2018-Jul-13 14:01N 40°42' W 073°60'2 4.5
2018-Jul-13 13:30N 40°44' W 073°58'1 1.3
2018-Jul-13 13:01N 40°43' W 073°58'2 4.3
2018-Jul-13 12:30N 40°42' W 074°00'2 4.2
2018-Jul-13 12:00N 40°43' W 073°58'1 2.5
2018-Jul-13 11:31N 40°44' W 073°58'3 5.1
2018-Jul-13 11:00N 40°42' W 073°60'1 1.9
2018-Jul-13 10:30N 40°42' W 073°58'0 0.1
2018-Jul-13 10:00N 40°42' W 073°58'0 0.0
2018-Jul-13 02:09N 40°42' W 073°58'1 8.3
2018-Jul-13 02:01N 40°42' W 073°60'2 4.5
2018-Jul-13 01:30N 40°40' W 074°01'2 3.0
2018-Jul-13 01:00N 40°39' W 074°02'0 0.4
2018-Jul-13 00:31N 40°39' W 074°02'4 8.2
2018-Jul-13 00:00N 40°42' W 073°58'0 0.8
2018-Jul-12 23:31N 40°43' W 073°59'4 6.2
2018-Jul-12 22:51N 40°46' W 073°56'2 5.6
2018-Jul-12 22:26N 40°45' W 073°58'2 4.1
2018-Jul-12 22:00N 40°43' W 073°58'4 7.4
2018-Jul-12 21:29N 40°46' W 073°56'2 4.9
2018-Jul-12 21:00N 40°45' W 073°58'4 8.2
2018-Jul-12 20:31N 40°41' W 074°01'2 4.4
2018-Jul-12 20:01N 40°39' W 074°02'1 1.0
2018-Jul-12 19:30N 40°38' W 074°02'5 9.5
2018-Jul-12 19:01N 40°42' W 073°58'0 0.3
2018-Jul-12 18:30N 40°42' W 073°58'0 0.0
2018-Jul-12 18:01N 40°42' W 073°58'0 0.4
2018-Jul-12 17:31N 40°42' W 073°58'0 0.2
2018-Jul-12 17:01N 40°42' W 073°58'0 0.0
2018-Jul-12 16:30N 40°42' W 073°58'4 6.5
2018-Jul-12 15:56N 40°46' W 073°57'4 9.1
2018-Jul-12 15:31N 40°42' W 073°58'0 0.0
2018-Jul-12 15:00N 40°42' W 073°58'0 0.0
2018-Jul-12 14:30N 40°42' W 073°58'0 0.0
2018-Jul-12 13:59N 40°42' W 073°58'0 0.0
2018-Jul-12 13:30N 40°42' W 073°58'0 0.0
2018-Jul-12 00:28N 40°42' W 073°58'0 0.5
2018-Jul-12 00:00N 40°42' W 073°58'1 1.1
2018-Jul-11 23:30N 40°43' W 073°59'3 4.3
2018-Jul-11 22:45N 40°45' W 073°57'1 4.3
2018-Jul-11 22:28N 40°45' W 073°58'1 3.1
2018-Jul-11 22:00N 40°43' W 073°58'3 4.7
2018-Jul-11 21:17N 40°46' W 073°56'2 6.6
2018-Jul-11 20:56N 40°45' W 073°58'3 6.6
2018-Jul-11 20:30N 40°42' W 074°00'0 0.0
2018-Jul-11 20:00N 40°42' W 074°00'0 0.4
2018-Jul-11 19:30N 40°42' W 074°00'3 5.6
2018-Jul-11 19:00N 40°45' W 073°58'3 5.9
2018-Jul-11 18:30N 40°42' W 074°00'1 2.9
2018-Jul-11 18:00N 40°42' W 073°58'0 0.0
2018-Jul-11 17:30N 40°42' W 073°58'1 1.1
2018-Jul-11 17:00N 40°43' W 073°58'1 1.3
2018-Jul-11 16:29N 40°42' W 073°58'0 0.0
2018-Jul-11 16:00N 40°42' W 073°58'0 0.2
2018-Jul-11 15:30N 40°42' W 073°58'1 3.0
2018-Jul-11 15:00N 40°42' W 074°00'3 6.9
2018-Jul-11 14:30N 40°45' W 073°57'1 1.0
2018-Jul-11 13:58N 40°45' W 073°57'4 8.7
2018-Jul-11 13:30N 40°42' W 074°00'4 7.2
2018-Jul-11 13:00N 40°45' W 073°57'0 0.3
2018-Jul-11 12:26N 40°45' W 073°57'4 8.8
2018-Jul-11 12:01N 40°42' W 074°00'4 7.8
2018-Jul-11 11:29N 40°46' W 073°57'3 7.1
2018-Jul-11 11:00N 40°42' W 073°59'0 0.7
2018-Jul-11 10:30N 40°42' W 073°58'0 0.0
2018-Jul-11 02:54N 40°42' W 073°58'511.7
2018-Jul-11 02:31N 40°39' W 074°02'3 6.6
2018-Jul-11 02:00N 40°42' W 074°00'0 0.1
2018-Jul-11 01:30N 40°42' W 074°00'3 6.0
2018-Jul-11 01:00N 40°39' W 074°02'3 5.3
2018-Jul-11 00:31N 40°41' W 074°01'1 1.9
2018-Jul-11 00:00N 40°42' W 073°60'4 7.7
2018-Jul-10 23:30N 40°39' W 074°02'3 5.8
2018-Jul-10 23:01N 40°41' W 074°01'0 0.8
2018-Jul-10 22:31N 40°42' W 074°00'4 7.1
2018-Jul-10 22:01N 40°38' W 074°02'4 7.1
2018-Jul-10 21:31N 40°42' W 074°00'1 1.2
2018-Jul-10 21:01N 40°42' W 073°60'4 7.8
2018-Jul-10 20:30N 40°39' W 074°02'3 6.5
2018-Jul-10 20:01N 40°41' W 074°00'1 1.3
2018-Jul-10 19:31N 40°42' W 074°00'4 7.9
2018-Jul-10 19:00N 40°38' W 074°02'3 6.9
2018-Jul-10 18:30N 40°42' W 074°00'0 0.2
2018-Jul-10 18:01N 40°42' W 074°00'4 7.0
2018-Jul-10 17:30N 40°38' W 074°02'4 8.3
2018-Jul-10 17:01N 40°42' W 073°60'1 1.3
2018-Jul-10 16:30N 40°42' W 074°00'4 7.1
2018-Jul-10 16:00N 40°38' W 074°02'3 6.8
2018-Jul-10 15:30N 40°41' W 074°00'1 1.4
2018-Jul-10 15:00N 40°42' W 074°00'1 1.3
2018-Jul-10 14:31N 40°42' W 074°00'4 7.1
2018-Jul-10 14:01N 40°38' W 074°02'4 7.1
2018-Jul-10 13:31N 40°42' W 074°00'0 0.0
2018-Jul-10 13:00N 40°42' W 074°00'3 6.9
2018-Jul-10 12:31N 40°39' W 074°02'3 6.3
2018-Jul-10 12:00N 40°41' W 074°01'0 0.8
2018-Jul-10 11:30N 40°42' W 074°00'3 6.9
2018-Jul-10 11:00N 40°39' W 074°02'4 8.6
2018-Jul-10 10:30N 40°42' W 073°59'1 1.9
2018-Jul-10 10:00N 40°42' W 073°58'0 0.0
2018-Jul-10 01:47N 40°42' W 073°58'0 1.8
2018-Jul-10 01:30N 40°42' W 073°59'2 4.4
2018-Jul-10 01:01N 40°41' W 074°01'0 0.0
2018-Jul-10 00:30N 40°41' W 074°01'2 3.7
2018-Jul-10 00:00N 40°42' W 073°59'0 0.7
2018-Jul-09 23:30N 40°43' W 073°59'4 7.2
2018-Jul-09 23:00N 40°46' W 073°57'2 3.2
2018-Jul-09 22:30N 40°45' W 073°58'2 4.2
2018-Jul-09 22:00N 40°43' W 073°59'4 6.6
2018-Jul-09 21:22N 40°46' W 073°56'2 6.2
2018-Jul-09 21:00N 40°45' W 073°58'2 4.8
2018-Jul-09 20:30N 40°42' W 073°59'1 1.5
2018-Jul-09 20:01N 40°42' W 073°58'2 4.4
2018-Jul-09 19:30N 40°41' W 074°01'2 4.4
2018-Jul-09 19:00N 40°42' W 073°59'0 0.9
2018-Jul-09 18:31N 40°42' W 073°58'3 3.4
2018-Jul-09 17:46N 40°45' W 073°58'1 1.1
2018-Jul-09 16:25N 40°46' W 073°57'4 9.1
2018-Jul-09 16:00N 40°42' W 073°59'0 0.1
2018-Jul-09 15:30N 40°42' W 073°59'0 1.0
2018-Jul-09 15:00N 40°42' W 073°60'3 6.4
2018-Jul-09 14:31N 40°45' W 073°57'1 1.1
2018-Jul-09 14:00N 40°45' W 073°57'4 8.1
2018-Jul-09 13:30N 40°42' W 074°00'4 8.0
2018-Jul-09 13:00N 40°45' W 073°57'0 0.0
2018-Jul-09 12:30N 40°45' W 073°57'4 8.2
2018-Jul-09 12:00N 40°42' W 074°00'4 7.7
2018-Jul-09 11:27N 40°46' W 073°57'3 7.6
2018-Jul-09 11:00N 40°42' W 073°59'0 0.6
2018-Jul-09 10:30N 40°42' W 073°58'0 0.0
2018-Jul-09 01:24N 40°42' W 073°58'2 3.9
2018-Jul-09 01:00N 40°42' W 074°00'2 4.3
2018-Jul-09 00:31N 40°40' W 074°01'2 4.3
2018-Jul-09 00:00N 40°42' W 074°00'1 2.5
2018-Jul-08 23:30N 40°41' W 074°01'2 4.5
2018-Jul-08 23:00N 40°39' W 074°02'4 7.5
2018-Jul-08 22:31N 40°42' W 073°60'0 0.0
2018-Jul-08 22:01N 40°42' W 073°60'4 8.4
2018-Jul-08 21:30N 40°38' W 074°02'3 7.0
2018-Jul-08 21:00N 40°42' W 074°00'1 1.2
2018-Jul-08 20:30N 40°42' W 073°60'4 7.0
2018-Jul-08 20:00N 40°39' W 074°02'2 4.3
2018-Jul-08 19:30N 40°41' W 074°01'1 2.7
2018-Jul-08 18:58N 40°42' W 074°00'1 3.1
2018-Jul-08 18:30N 40°41' W 074°01'2 4.3
2018-Jul-08 18:00N 40°39' W 074°02'4 6.9
2018-Jul-08 17:29N 40°42' W 073°60'0 0.1
2018-Jul-08 17:00N 40°42' W 073°60'4 8.2
2018-Jul-08 16:30N 40°38' W 074°02'4 7.1
2018-Jul-08 16:00N 40°42' W 074°00'1 2.9
2018-Jul-08 15:29N 40°42' W 073°58'0 0.0
2018-Jul-08 04:18N 40°42' W 073°58'0 0.0
2018-Jul-08 04:01N 40°42' W 073°58'0 0.0
2018-Jul-08 03:30N 40°42' W 073°58'0 0.1
2018-Jul-07 23:02N 40°42' W 073°59'0 6.8
2018-Jul-07 23:01N 40°42' W 073°59'1 2.5
2018-Jul-07 22:31N 40°42' W 074°00'0 0.0
2018-Jul-07 22:00N 40°42' W 074°00'1 2.1
2018-Jul-07 21:30N 40°41' W 074°01'0 0.1
2018-Jul-07 21:00N 40°41' W 074°01'0 0.0
2018-Jul-07 20:30N 40°41' W 074°01'0 0.0
2018-Jul-07 20:01N 40°41' W 074°01'0 0.8
2018-Jul-07 19:31N 40°41' W 074°00'0 0.3
2018-Jul-07 19:01N 40°42' W 074°01'1 1.3
2018-Jul-07 18:30N 40°42' W 074°00'0 0.1
2018-Jul-07 18:00N 40°42' W 074°00'0 0.1
2018-Jul-07 17:30N 40°42' W 074°00'0 0.1
2018-Jul-07 16:59N 40°42' W 074°00'0 0.0
2018-Jul-07 16:30N 40°42' W 074°00'0 0.0
2018-Jul-07 16:00N 40°42' W 074°00'0 0.5
2018-Jul-07 15:30N 40°42' W 074°00'0 0.2
2018-Jul-07 15:00N 40°42' W 074°00'0 0.8
2018-Jul-07 14:30N 40°42' W 074°00'0 0.1
2018-Jul-07 14:01N 40°42' W 074°00'2 0.1
2018-Jul-07 02:50N 40°42' W 073°58'0 1.1
2018-Jul-07 02:31N 40°42' W 073°59'3 5.7
2018-Jul-07 01:59N 40°45' W 073°57'4 8.1
2018-Jul-07 01:30N 40°42' W 074°00'4 6.9
2018-Jul-07 00:55N 40°45' W 073°57'0 0.5
2018-Jul-07 00:30N 40°45' W 073°57'4 7.7
2018-Jul-07 00:00N 40°42' W 074°00'4 6.9
2018-Jul-06 23:25N 40°45' W 073°57'0 1.0
2018-Jul-06 23:00N 40°45' W 073°57'4 7.4
2018-Jul-06 22:30N 40°42' W 074°00'4 8.0
2018-Jul-06 22:00N 40°45' W 073°57'0 0.1
2018-Jul-06 21:30N 40°45' W 073°57'4 7.9
2018-Jul-06 21:00N 40°42' W 074°00'3 5.9
2018-Jul-06 20:30N 40°45' W 073°58'1 2.1
2018-Jul-06 19:54N 40°46' W 073°57'2 6.3
2018-Jul-06 19:30N 40°43' W 073°58'2 3.4
2018-Jul-06 19:00N 40°45' W 073°57'2 3.3
2018-Jul-06 18:29N 40°46' W 073°56'3 6.3
2018-Jul-06 18:00N 40°44' W 073°58'1 1.6
2018-Jul-06 17:26N 40°45' W 073°58'1 2.7
2018-Jul-06 16:54N 40°46' W 073°57'2 5.1
2018-Jul-06 16:30N 40°44' W 073°58'1 1.2
2018-Jul-06 15:57N 40°45' W 073°58'1 2.6
2018-Jul-06 15:28N 40°46' W 073°57'4 8.3
2018-Jul-06 15:01N 40°42' W 073°60'3 6.2
2018-Jul-06 14:30N 40°45' W 073°57'0 0.8
2018-Jul-06 13:55N 40°45' W 073°57'4 9.4
2018-Jul-06 13:30N 40°42' W 074°00'4 7.1
2018-Jul-06 13:00N 40°45' W 073°57'0 0.9
2018-Jul-06 12:29N 40°45' W 073°57'4 8.3
2018-Jul-06 12:00N 40°42' W 074°00'4 8.0
2018-Jul-06 11:30N 40°45' W 073°57'3 6.7
2018-Jul-06 11:00N 40°42' W 073°59'0 0.7
2018-Jul-06 10:30N 40°42' W 073°58'0 0.0
2018-Jul-06 10:00N 40°42' W 073°58'  

Dump ship's entire track history